Crockett, Kentucky
Current Conditions -  °F | °C
As of 3:35 PM on Monday 22 Dec 2014 (Local Time) from KSJS Reporting Station
Overcast Overcast  
Wind Chill: 55°   Ceiling: 9500
Heat Index: 55°   Visibility: 10mi
Dew Point: 41°   Wind: 6mph
Humidity: 60%   Direction: 70°ENE
Pressure: 29.87"   Gusts: NA
Location:  37.99°N, 83.09°W
Report Text: KSJS 222035Z AUTO 07005KT 10SM OVC095 13/05 A2987 RMK AO2 T01260050
Loading
Personal Weather Stations






























Interactive Weather Map New forecast layout! Learn more

10-Day Weather Forecast

Advertisements
Track Severe Weather on mobile